VTSP/HKT METAR and TAF weather

Enter ICAO airport designator
Station Type Date Time Source
VTSP METAR 2021/05/13 06:30 UTC NOAA

VTSP 130630Z 28008KT 250V310 9999 FEW020TCU SCT100 31/26 Q1006 NOSIG


Station Type Date Time Source
VTSP Decoded METAR 2021/05/13 06:30 UTC NOAA

Phuket Airport, Thailand (VTSP) 08-07N 098-19E 10M
May 13, 2021 - 02:30 AM EDT / 2021.05.13 0630 UTC
Wind: from the W (280 degrees) at 9 MPH (8 KT) (direction variable):0
Visibility: greater than 7 mile(s):0
Sky conditions: partly cloudy
Weather: Towering cumulus clouds observed
Temperature: 87 F (31 C)
Heat index: 99.7 F (37.6 C):1
Dew Point: 78 F (26 C)
Relative Humidity: 74%
Pressure (altimeter): 29.71 in. Hg (1006 hPa)
ob: VTSP 130630Z 28008KT 250V310 9999 FEW020TCU SCT100 31/26 Q1006 NOSIG
cycle: 6

Station Type Date Time Source
VTSP TAF 2021/05/13 06:36 UTC NOAA

TAF VTSP 130500Z 1306/1412 28008KT 9999 FEW020
BECMG 1310/1312 00000KT
TEMPO 1312/1316 30015G25KT 3000 TSRA FEW016CB BKN100
BECMG 1402/1404 28008KT

Example: see airport list